sensor_id;sensor_type;location;lat;lon;timestamp;pressure;altitude;pressure_sealevel;temperature;humidity
23446;BME280;11895;48.738;9.320;2022-08-30T00:02:20;98936.56;;;21.33;65.00
23446;BME280;11895;48.738;9.320;2022-08-30T00:04:51;98933.69;;;21.13;68.44
23446;BME280;11895;48.738;9.320;2022-08-30T00:07:21;98929.56;;;21.19;66.55
23446;BME280;11895;48.738;9.320;2022-08-30T00:09:49;98930.97;;;21.13;64.06
23446;BME280;11895;48.738;9.320;2022-08-30T00:12:16;98932.41;;;21.17;64.22
23446;BME280;11895;48.738;9.320;2022-08-30T00:14:44;98931.41;;;21.18;66.02
23446;BME280;11895;48.738;9.320;2022-08-30T00:17:12;98935.88;;;21.19;63.40
23446;BME280;11895;48.738;9.320;2022-08-30T00:19:39;98930.41;;;21.19;54.62
23446;BME280;11895;48.738;9.320;2022-08-30T00:22:06;98930.88;;;21.24;63.10
23446;BME280;11895;48.738;9.320;2022-08-30T00:24:35;98936.44;;;21.13;66.42
23446;BME280;11895;48.738;9.320;2022-08-30T00:27:07;98934.97;;;21.09;62.51
23446;BME280;11895;48.738;9.320;2022-08-30T00:29:34;98932.75;;;21.03;60.25
23446;BME280;11895;48.738;9.320;2022-08-30T00:32:02;98939.53;;;20.99;65.74
23446;BME280;11895;48.738;9.320;2022-08-30T00:34:29;98949.00;;;20.95;66.22
23446;BME280;11895;48.738;9.320;2022-08-30T00:36:58;98939.97;;;20.83;66.86
23446;BME280;11895;48.738;9.320;2022-08-30T00:39:25;98941.84;;;20.83;63.17
23446;BME280;11895;48.738;9.320;2022-08-30T00:41:53;98944.56;;;20.83;64.23
23446;BME280;11895;48.738;9.320;2022-08-30T00:44:20;98940.81;;;20.84;65.54
23446;BME280;11895;48.738;9.320;2022-08-30T00:46:47;98943.09;;;20.78;66.71
23446;BME280;11895;48.738;9.320;2022-08-30T00:49:14;98943.38;;;20.75;66.84
23446;BME280;11895;48.738;9.320;2022-08-30T00:51:41;98944.66;;;20.71;65.71
23446;BME280;11895;48.738;9.320;2022-08-30T00:54:09;98949.66;;;20.66;66.89
23446;BME280;11895;48.738;9.320;2022-08-30T00:56:37;98946.91;;;20.66;67.28
23446;BME280;11895;48.738;9.320;2022-08-30T00:59:06;98946.16;;;20.64;60.22
23446;BME280;11895;48.738;9.320;2022-08-30T01:01:35;98948.91;;;20.64;63.40
23446;BME280;11895;48.738;9.320;2022-08-30T01:04:05;98929.25;;;20.59;67.03
23446;BME280;11895;48.738;9.320;2022-08-30T01:06:36;98938.00;;;20.53;68.16
23446;BME280;11895;48.738;9.320;2022-08-30T01:09:07;98935.00;;;20.45;68.01
23446;BME280;11895;48.738;9.320;2022-08-30T01:11:36;98939.16;;;20.39;55.54
23446;BME280;11895;48.738;9.320;2022-08-30T01:14:04;98948.97;;;20.42;68.31
23446;BME280;11895;48.738;9.320;2022-08-30T01:16:34;98953.69;;;20.40;62.22
23446;BME280;11895;48.738;9.320;2022-08-30T01:19:05;98949.09;;;20.40;66.47
23446;BME280;11895;48.738;9.320;2022-08-30T01:21:50;98948.75;;;20.34;64.24
23446;BME280;11895;48.738;9.320;2022-08-30T01:24:22;98950.75;;;20.32;66.15
23446;BME280;11895;48.738;9.320;2022-08-30T01:26:50;98947.53;;;20.26;68.64
23446;BME280;11895;48.738;9.320;2022-08-30T01:29:21;98954.78;;;20.16;65.77
23446;BME280;11895;48.738;9.320;2022-08-30T01:31:50;98949.13;;;19.97;68.92
23446;BME280;11895;48.738;9.320;2022-08-30T01:34:18;98958.78;;;20.01;68.19
23446;BME280;11895;48.738;9.320;2022-08-30T01:36:46;98945.59;;;20.06;69.47
23446;BME280;11895;48.738;9.320;2022-08-30T01:39:16;98949.31;;;20.05;68.84
23446;BME280;11895;48.738;9.320;2022-08-30T01:41:45;98953.59;;;19.98;68.23
23446;BME280;11895;48.738;9.320;2022-08-30T01:44:14;98947.88;;;19.90;70.17
23446;BME280;11895;48.738;9.320;2022-08-30T01:46:46;98951.34;;;19.92;70.25
23446;BME280;11895;48.738;9.320;2022-08-30T01:49:17;98963.03;;;19.94;69.70
23446;BME280;11895;48.738;9.320;2022-08-30T01:51:54;98956.22;;;19.88;70.06
23446;BME280;11895;48.738;9.320;2022-08-30T01:54:29;98964.03;;;19.93;69.46
23446;BME280;11895;48.738;9.320;2022-08-30T01:57:11;98963.03;;;19.94;67.72
23446;BME280;11895;48.738;9.320;2022-08-30T01:59:42;98962.28;;;19.92;68.13
23446;BME280;11895;48.738;9.320;2022-08-30T02:02:17;98959.19;;;19.85;69.74
23446;BME280;11895;48.738;9.320;2022-08-30T02:04:47;98959.06;;;19.75;70.60
23446;BME280;11895;48.738;9.320;2022-08-30T02:07:15;98964.69;;;19.74;69.22
23446;BME280;11895;48.738;9.320;2022-08-30T02:09:43;98964.31;;;19.79;68.86
23446;BME280;11895;48.738;9.320;2022-08-30T02:12:12;98970.38;;;19.71;62.65
23446;BME280;11895;48.738;9.320;2022-08-30T02:14:40;98970.25;;;19.72;68.59
23446;BME280;11895;48.738;9.320;2022-08-30T02:17:09;98964.78;;;19.72;69.41
23446;BME280;11895;48.738;9.320;2022-08-30T02:19:39;98959.59;;;19.69;69.00
23446;BME280;11895;48.738;9.320;2022-08-30T02:22:07;98956.94;;;19.57;70.84
23446;BME280;11895;48.738;9.320;2022-08-30T02:24:34;98953.09;;;19.48;70.84
23446;BME280;11895;48.738;9.320;2022-08-30T02:27:02;98955.81;;;19.48;70.41
23446;BME280;11895;48.738;9.320;2022-08-30T02:29:30;98942.91;;;19.50;69.35
23446;BME280;11895;48.738;9.320;2022-08-30T02:31:58;98953.09;;;19.48;69.73
23446;BME280;11895;48.738;9.320;2022-08-30T02:34:25;98954.34;;;19.44;71.24
23446;BME280;11895;48.738;9.320;2022-08-30T02:36:53;98952.47;;;19.44;68.84
23446;BME280;11895;48.738;9.320;2022-08-30T02:39:20;98956.94;;;19.45;69.37
23446;BME280;11895;48.738;9.320;2022-08-30T02:41:47;98941.66;;;19.43;69.31
23446;BME280;11895;48.738;9.320;2022-08-30T02:44:15;98942.41;;;19.34;71.29
23446;BME280;11895;48.738;9.320;2022-08-30T02:46:42;98947.50;;;19.27;71.55
23446;BME280;11895;48.738;9.320;2022-08-30T02:49:10;98942.91;;;19.27;70.84
23446;BME280;11895;48.738;9.320;2022-08-30T02:51:57;98939.66;;;19.22;70.90
23446;BME280;11895;48.738;9.320;2022-08-30T02:54:24;98944.13;;;19.12;71.15
23446;BME280;11895;48.738;9.320;2022-08-30T02:56:52;98942.63;;;19.08;71.80
23446;BME280;11895;48.738;9.320;2022-08-30T02:59:19;98949.75;;;18.75;75.24
23446;BME280;11895;48.738;9.320;2022-08-30T03:01:46;98953.25;;;18.89;73.75
23446;BME280;11895;48.738;9.320;2022-08-30T03:04:15;98944.88;;;18.68;76.07
23446;BME280;11895;48.738;9.320;2022-08-30T03:06:42;98942.56;;;18.74;75.14
23446;BME280;11895;48.738;9.320;2022-08-30T03:09:09;98941.50;;;18.64;77.15
23446;BME280;11895;48.738;9.320;2022-08-30T03:11:37;98937.50;;;18.81;76.12
23446;BME280;11895;48.738;9.320;2022-08-30T03:14:04;98943.22;;;18.89;71.98
23446;BME280;11895;48.738;9.320;2022-08-30T03:16:32;98934.94;;;18.91;69.32
23446;BME280;11895;48.738;9.320;2022-08-30T03:18:59;98938.53;;;19.03;73.13
23446;BME280;11895;48.738;9.320;2022-08-30T03:21:27;98930.94;;;18.95;73.92
23446;BME280;11895;48.738;9.320;2022-08-30T03:23:54;98931.56;;;18.87;75.02
23446;BME280;11895;48.738;9.320;2022-08-30T03:26:21;98928.47;;;18.92;73.11
23446;BME280;11895;48.738;9.320;2022-08-30T03:28:48;98919.50;;;18.79;77.09
23446;BME280;11895;48.738;9.320;2022-08-30T03:31:16;98915.78;;;18.80;76.18
23446;BME280;11895;48.738;9.320;2022-08-30T03:33:44;98922.59;;;18.74;76.18
23446;BME280;11895;48.738;9.320;2022-08-30T03:36:11;98927.91;;;18.75;70.54
23446;BME280;11895;48.738;9.320;2022-08-30T03:38:38;98925.34;;;18.50;78.60
23446;BME280;11895;48.738;9.320;2022-08-30T03:41:06;98930.09;;;18.59;77.20
23446;BME280;11895;48.738;9.320;2022-08-30T03:43:34;98935.75;;;18.56;78.42
23446;BME280;11895;48.738;9.320;2022-08-30T03:46:03;98932.69;;;18.61;77.60
23446;BME280;11895;48.738;9.320;2022-08-30T03:48:30;98924.13;;;18.54;79.07
23446;BME280;11895;48.738;9.320;2022-08-30T03:50:58;98928.34;;;18.58;77.11
23446;BME280;11895;48.738;9.320;2022-08-30T03:53:25;98928.84;;;18.52;66.34
23446;BME280;11895;48.738;9.320;2022-08-30T03:55:53;98935.31;;;18.62;73.69
23446;BME280;11895;48.738;9.320;2022-08-30T03:58:24;98922.63;;;18.61;74.49
23446;BME280;11895;48.738;9.320;2022-08-30T04:00:51;98927.72;;;18.66;71.78
23446;BME280;11895;48.738;9.320;2022-08-30T04:03:18;98930.47;;;18.66;66.92
23446;BME280;11895;48.738;9.320;2022-08-30T04:05:55;98934.63;;;18.71;72.92
23446;BME280;11895;48.738;9.320;2022-08-30T04:08:23;98934.31;;;18.63;70.73
23446;BME280;11895;48.738;9.320;2022-08-30T04:10:52;98930.09;;;18.59;68.53
23446;BME280;11895;48.738;9.320;2022-08-30T04:13:23;98929.28;;;18.46;75.71
23446;BME280;11895;48.738;9.320;2022-08-30T04:15:50;98930.16;;;18.22;78.68
23446;BME280;11895;48.738;9.320;2022-08-30T04:18:17;98926.28;;;18.38;76.00
23446;BME280;11895;48.738;9.320;2022-08-30T04:20:45;98937.66;;;18.32;76.13
23446;BME280;11895;48.738;9.320;2022-08-30T04:23:13;98935.91;;;18.31;72.88
23446;BME280;11895;48.738;9.320;2022-08-30T04:25:41;98929.97;;;18.37;64.86
23446;BME280;11895;48.738;9.320;2022-08-30T04:28:09;98939.28;;;18.34;71.45
23446;BME280;11895;48.738;9.320;2022-08-30T04:30:42;98938.50;;;18.32;65.18
23446;BME280;11895;48.738;9.320;2022-08-30T04:33:14;98941.16;;;18.34;73.07
23446;BME280;11895;48.738;9.320;2022-08-30T04:35:47;98944.88;;;18.33;66.62
23446;BME280;11895;48.738;9.320;2022-08-30T04:38:16;98948.84;;;18.40;73.01
23446;BME280;11895;48.738;9.320;2022-08-30T04:40:48;98949.19;;;18.35;72.32
23446;BME280;11895;48.738;9.320;2022-08-30T04:43:15;98942.16;;;18.33;74.51
23446;BME280;11895;48.738;9.320;2022-08-30T04:45:43;98943.97;;;18.32;74.72
23446;BME280;11895;48.738;9.320;2022-08-30T04:48:10;98949.81;;;18.28;75.31
23446;BME280;11895;48.738;9.320;2022-08-30T04:50:38;98956.22;;;18.27;75.29
23446;BME280;11895;48.738;9.320;2022-08-30T04:53:12;98957.25;;;18.37;70.04
23446;BME280;11895;48.738;9.320;2022-08-30T04:55:42;98963.84;;;18.34;67.87
23446;BME280;11895;48.738;9.320;2022-08-30T04:58:10;98968.06;;;18.38;65.27
23446;BME280;11895;48.738;9.320;2022-08-30T05:00:38;98973.19;;;18.43;70.37
23446;BME280;11895;48.738;9.320;2022-08-30T05:03:08;98965.56;;;18.35;69.49
23446;BME280;11895;48.738;9.320;2022-08-30T05:05:35;98974.09;;;18.31;76.76
23446;BME280;11895;48.738;9.320;2022-08-30T05:08:07;98984.53;;;18.37;75.96
23446;BME280;11895;48.738;9.320;2022-08-30T05:10:44;98985.81;;;18.44;76.63
23446;BME280;11895;48.738;9.320;2022-08-30T05:13:16;98981.88;;;18.48;73.20
23446;BME280;11895;48.738;9.320;2022-08-30T05:15:45;98976.22;;;18.62;69.69
23446;BME280;11895;48.738;9.320;2022-08-30T05:18:13;98983.56;;;18.62;70.70
23446;BME280;11895;48.738;9.320;2022-08-30T05:20:42;98982.19;;;18.67;66.28
23446;BME280;11895;48.738;9.320;2022-08-30T05:23:10;98989.72;;;18.77;70.71
23446;BME280;11895;48.738;9.320;2022-08-30T05:25:41;99003.34;;;18.53;75.94
23446;BME280;11895;48.738;9.320;2022-08-30T05:28:08;98996.56;;;18.58;75.78
23446;BME280;11895;48.738;9.320;2022-08-30T05:30:36;98999.34;;;18.69;75.06
23446;BME280;11895;48.738;9.320;2022-08-30T05:33:04;98999.94;;;18.97;72.82
23446;BME280;11895;48.738;9.320;2022-08-30T05:35:31;99005.56;;;19.18;69.56
23446;BME280;11895;48.738;9.320;2022-08-30T05:37:59;98992.31;;;19.24;68.32
23446;BME280;11895;48.738;9.320;2022-08-30T05:40:26;99008.56;;;19.15;74.45
23446;BME280;11895;48.738;9.320;2022-08-30T05:42:55;99000.53;;;19.36;64.65
23446;BME280;11895;48.738;9.320;2022-08-30T05:45:22;99005.63;;;19.51;73.53
23446;BME280;11895;48.738;9.320;2022-08-30T05:47:49;98999.56;;;19.70;64.76
23446;BME280;11895;48.738;9.320;2022-08-30T05:50:17;98996.34;;;19.88;66.07
23446;BME280;11895;48.738;9.320;2022-08-30T05:52:47;98994.81;;;20.06;69.65
23446;BME280;11895;48.738;9.320;2022-08-30T05:55:14;98991.38;;;19.93;65.45
23446;BME280;11895;48.738;9.320;2022-08-30T05:57:42;98982.94;;;19.73;74.42
23446;BME280;11895;48.738;9.320;2022-08-30T06:00:16;98980.81;;;19.88;73.44
23446;BME280;11895;48.738;9.320;2022-08-30T06:02:44;98981.03;;;20.08;69.59
23446;BME280;11895;48.738;9.320;2022-08-30T06:05:12;98985.50;;;20.09;73.06
23446;BME280;11895;48.738;9.320;2022-08-30T06:07:41;98984.84;;;20.27;71.92
23446;BME280;11895;48.738;9.320;2022-08-30T06:10:09;98986.53;;;20.40;69.80
23446;BME280;11895;48.738;9.320;2022-08-30T06:12:38;98987.28;;;20.31;66.40
23446;BME280;11895;48.738;9.320;2022-08-30T06:15:07;98987.16;;;20.43;70.13
23446;BME280;11895;48.738;9.320;2022-08-30T06:17:34;98984.66;;;20.51;65.77
23446;BME280;11895;48.738;9.320;2022-08-30T06:20:03;98982.03;;;20.61;65.92
23446;BME280;11895;48.738;9.320;2022-08-30T06:22:30;98997.22;;;20.43;70.01
23446;BME280;11895;48.738;9.320;2022-08-30T06:24:58;98997.00;;;20.35;71.44
23446;BME280;11895;48.738;9.320;2022-08-30T06:27:25;99002.97;;;20.51;70.71
23446;BME280;11895;48.738;9.320;2022-08-30T06:29:53;98997.69;;;20.59;69.64
23446;BME280;11895;48.738;9.320;2022-08-30T06:32:20;98999.81;;;20.44;70.34
23446;BME280;11895;48.738;9.320;2022-08-30T06:34:48;98992.28;;;20.80;69.80
23446;BME280;11895;48.738;9.320;2022-08-30T06:37:16;98997.75;;;21.01;65.93
23446;BME280;11895;48.738;9.320;2022-08-30T06:39:57;98992.03;;;21.04;67.48
23446;BME280;11895;48.738;9.320;2022-08-30T06:42:30;98990.38;;;21.22;66.37
23446;BME280;11895;48.738;9.320;2022-08-30T06:45:00;98988.94;;;21.18;64.33
23446;BME280;11895;48.738;9.320;2022-08-30T06:47:36;98985.81;;;21.44;65.50
23446;BME280;11895;48.738;9.320;2022-08-30T06:50:04;98982.75;;;21.68;59.96
23446;BME280;11895;48.738;9.320;2022-08-30T06:52:32;98972.44;;;21.81;63.96
23446;BME280;11895;48.738;9.320;2022-08-30T06:55:00;98978.88;;;21.80;61.25
23446;BME280;11895;48.738;9.320;2022-08-30T06:57:28;98974.78;;;21.95;64.05
23446;BME280;11895;48.738;9.320;2022-08-30T06:59:56;98977.09;;;22.00;62.40
23446;BME280;11895;48.738;9.320;2022-08-30T07:02:25;98973.50;;;22.09;62.16
23446;BME280;11895;48.738;9.320;2022-08-30T07:04:53;98971.38;;;22.13;62.07
23446;BME280;11895;48.738;9.320;2022-08-30T07:07:20;98968.72;;;21.92;63.65
23446;BME280;11895;48.738;9.320;2022-08-30T07:09:48;98975.84;;;22.14;62.47
23446;BME280;11895;48.738;9.320;2022-08-30T07:12:16;98969.34;;;21.74;63.59
23446;BME280;11895;48.738;9.320;2022-08-30T07:14:44;98977.94;;;21.60;65.53
23446;BME280;11895;48.738;9.320;2022-08-30T07:17:12;98968.59;;;22.03;63.49
23446;BME280;11895;48.738;9.320;2022-08-30T07:20:04;98971.41;;;22.22;63.13
23446;BME280;11895;48.738;9.320;2022-08-30T07:22:32;98966.34;;;22.27;61.24
23446;BME280;11895;48.738;9.320;2022-08-30T07:25:00;98971.47;;;22.01;63.31
23446;BME280;11895;48.738;9.320;2022-08-30T07:27:27;98983.59;;;22.49;60.84
23446;BME280;11895;48.738;9.320;2022-08-30T07:29:55;98975.94;;;22.81;59.31
23446;BME280;11895;48.738;9.320;2022-08-30T07:32:24;98982.28;;;22.53;59.85
23446;BME280;11895;48.738;9.320;2022-08-30T07:34:51;98975.38;;;22.88;59.37
23446;BME280;11895;48.738;9.320;2022-08-30T07:37:18;98978.19;;;23.44;57.62
23446;BME280;11895;48.738;9.320;2022-08-30T07:39:46;98987.19;;;23.83;56.44
23446;BME280;11895;48.738;9.320;2022-08-30T07:42:15;98985.81;;;23.60;56.46
23446;BME280;11895;48.738;9.320;2022-08-30T07:44:42;98984.81;;;24.26;54.70
23446;BME280;11895;48.738;9.320;2022-08-30T07:47:10;98972.69;;;24.64;53.98
23446;BME280;11895;48.738;9.320;2022-08-30T07:49:38;98978.50;;;24.97;53.14
23446;BME280;11895;48.738;9.320;2022-08-30T07:52:05;98983.06;;;25.06;52.85
23446;BME280;11895;48.738;9.320;2022-08-30T07:54:32;98983.03;;;25.42;51.67
23446;BME280;11895;48.738;9.320;2022-08-30T07:57:00;98979.94;;;25.45;51.46
23446;BME280;11895;48.738;9.320;2022-08-30T07:59:27;98975.59;;;24.98;52.10
23446;BME280;11895;48.738;9.320;2022-08-30T08:02:00;98979.94;;;25.45;51.43
23446;BME280;11895;48.738;9.320;2022-08-30T08:04:27;98978.75;;;25.73;51.00
23446;BME280;11895;48.738;9.320;2022-08-30T08:06:54;98973.53;;;25.96;51.10
23446;BME280;11895;48.738;9.320;2022-08-30T08:09:25;98966.84;;;25.99;49.68
23446;BME280;11895;48.738;9.320;2022-08-30T08:11:53;98974.13;;;26.08;50.46
23446;BME280;11895;48.738;9.320;2022-08-30T08:14:21;98970.50;;;26.15;49.45
23446;BME280;11895;48.738;9.320;2022-08-30T08:16:49;98976.25;;;26.22;49.82
23446;BME280;11895;48.738;9.320;2022-08-30T08:19:17;98973.94;;;25.49;50.73
23446;BME280;11895;48.738;9.320;2022-08-30T08:21:49;98979.50;;;25.31;51.51
23446;BME280;11895;48.738;9.320;2022-08-30T08:24:37;98976.09;;;25.37;50.90
23446;BME280;11895;48.738;9.320;2022-08-30T08:27:04;98972.97;;;25.84;50.68
23446;BME280;11895;48.738;9.320;2022-08-30T08:29:32;98978.78;;;26.15;50.55
23446;BME280;11895;48.738;9.320;2022-08-30T08:31:59;98971.16;;;26.44;49.06
23446;BME280;11895;48.738;9.320;2022-08-30T08:34:26;98971.72;;;26.55;48.86
23446;BME280;11895;48.738;9.320;2022-08-30T08:36:54;98968.25;;;26.53;49.26
23446;BME280;11895;48.738;9.320;2022-08-30T08:39:21;98965.59;;;26.35;49.54
23446;BME280;11895;48.738;9.320;2022-08-30T08:45:18;98961.78;;;26.36;49.37
23446;BME280;11895;48.738;9.320;2022-08-30T08:48:01;98961.00;;;26.10;50.63
23446;BME280;11895;48.738;9.320;2022-08-30T08:50:30;98964.66;;;26.61;49.29
23446;BME280;11895;48.738;9.320;2022-08-30T08:53:15;98955.72;;;27.16;48.73
23446;BME280;11895;48.738;9.320;2022-08-30T08:56:18;98959.50;;;26.90;48.63
23446;BME280;11895;48.738;9.320;2022-08-30T08:58:55;98951.00;;;27.41;47.90
23446;BME280;11895;48.738;9.320;2022-08-30T09:01:29;98949.59;;;27.78;47.31
23446;BME280;11895;48.738;9.320;2022-08-30T09:04:02;98950.97;;;27.74;46.57
23446;BME280;11895;48.738;9.320;2022-08-30T09:06:57;98941.84;;;27.49;47.17
23446;BME280;11895;48.738;9.320;2022-08-30T09:09:34;98946.69;;;27.71;47.15
23446;BME280;11895;48.738;9.320;2022-08-30T09:12:06;98948.44;;;26.90;48.68
23446;BME280;11895;48.738;9.320;2022-08-30T09:14:45;98946.00;;;27.45;47.76
23446;BME280;11895;48.738;9.320;2022-08-30T09:17:17;98945.56;;;27.88;46.84
23446;BME280;11895;48.738;9.320;2022-08-30T09:19:58;98949.56;;;28.25;45.30
23446;BME280;11895;48.738;9.320;2022-08-30T09:22:36;98951.22;;;28.42;44.92
23446;BME280;11895;48.738;9.320;2022-08-30T09:25:19;98932.94;;;28.56;44.95
23446;BME280;11895;48.738;9.320;2022-08-30T09:27:52;98933.63;;;28.81;44.12
23446;BME280;11895;48.738;9.320;2022-08-30T09:30:27;98932.91;;;28.64;44.46
23446;BME280;11895;48.738;9.320;2022-08-30T09:33:03;98923.84;;;28.93;42.52
23446;BME280;11895;48.738;9.320;2022-08-30T09:35:40;98925.53;;;29.40;42.03
23446;BME280;11895;48.738;9.320;2022-08-30T09:38:27;98919.44;;;29.60;41.76
23446;BME280;11895;48.738;9.320;2022-08-30T09:41:00;98912.63;;;29.62;41.99
23446;BME280;11895;48.738;9.320;2022-08-30T09:43:33;98911.78;;;29.77;41.87
23446;BME280;11895;48.738;9.320;2022-08-30T09:48:41;98913.88;;;29.89;39.63
23446;BME280;11895;48.738;9.320;2022-08-30T09:54:08;98908.34;;;29.75;40.27
23446;BME280;11895;48.738;9.320;2022-08-30T09:57:10;98906.09;;;30.00;39.81
23446;BME280;11895;48.738;9.320;2022-08-30T10:00:15;98910.72;;;30.22;39.04
23446;BME280;11895;48.738;9.320;2022-08-30T10:06:05;98904.66;;;30.55;37.30
23446;BME280;11895;48.738;9.320;2022-08-30T10:18:37;98886.97;;;30.77;36.65
23446;BME280;11895;48.738;9.320;2022-08-30T10:21:46;98879.97;;;31.09;35.75
23446;BME280;11895;48.738;9.320;2022-08-30T10:25:01;98876.69;;;30.20;38.06
23446;BME280;11895;48.738;9.320;2022-08-30T11:31:53;98854.81;;;33.87;29.45
23446;BME280;11895;48.738;9.320;2022-08-30T11:44:40;98844.03;;;35.92;26.30
23446;BME280;11895;48.738;9.320;2022-08-30T11:47:43;98863.00;;;35.53;27.82
23446;BME280;11895;48.738;9.320;2022-08-30T12:05:05;98851.44;;;36.84;25.38
23446;BME280;11895;48.738;9.320;2022-08-30T12:14:05;98845.31;;;35.96;26.33
23446;BME280;11895;48.738;9.320;2022-08-30T12:16:45;98845.47;;;36.80;25.98
23446;BME280;11895;48.738;9.320;2022-08-30T12:19:43;98846.91;;;36.71;25.84
23446;BME280;11895;48.738;9.320;2022-08-30T12:22:17;98837.56;;;36.59;25.63
23446;BME280;11895;48.738;9.320;2022-08-30T12:24:50;98840.63;;;35.72;26.87
23446;BME280;11895;48.738;9.320;2022-08-30T12:27:29;98857.72;;;36.37;26.53
23446;BME280;11895;48.738;9.320;2022-08-30T12:33:47;98836.94;;;38.16;24.13
23446;BME280;11895;48.738;9.320;2022-08-30T12:47:40;98826.00;;;38.60;23.71
23446;BME280;11895;48.738;9.320;2022-08-30T12:50:15;98814.63;;;38.26;23.63
23446;BME280;11895;48.738;9.320;2022-08-30T12:53:00;98818.66;;;39.04;22.81
23446;BME280;11895;48.738;9.320;2022-08-30T12:56:04;98821.91;;;39.46;22.55
23446;BME280;11895;48.738;9.320;2022-08-30T12:58:45;98821.44;;;38.87;22.79
23446;BME280;11895;48.738;9.320;2022-08-30T13:01:31;98814.28;;;37.47;24.36
23446;BME280;11895;48.738;9.320;2022-08-30T13:04:32;98817.44;;;38.26;23.58
23446;BME280;11895;48.738;9.320;2022-08-30T13:07:01;98811.84;;;37.27;24.30
23446;BME280;11895;48.738;9.320;2022-08-30T13:09:40;98809.44;;;36.65;25.42
23446;BME280;11895;48.738;9.320;2022-08-30T13:12:27;98800.25;;;37.35;24.62
23446;BME280;11895;48.738;9.320;2022-08-30T13:15:25;98806.09;;;38.78;23.27
23446;BME280;11895;48.738;9.320;2022-08-30T13:18:24;98798.25;;;38.80;23.28
23446;BME280;11895;48.738;9.320;2022-08-30T13:28:19;98782.69;;;39.83;22.03
23446;BME280;11895;48.738;9.320;2022-08-30T13:30:47;98776.88;;;40.66;20.94
23446;BME280;11895;48.738;9.320;2022-08-30T13:36:59;98767.03;;;41.38;21.19
23446;BME280;11895;48.738;9.320;2022-08-30T13:50:37;98750.22;;;37.84;24.27
23446;BME280;11895;48.738;9.320;2022-08-30T13:53:05;98746.78;;;39.01;22.91
23446;BME280;11895;48.738;9.320;2022-08-30T13:55:38;98738.50;;;39.50;22.68
23446;BME280;11895;48.738;9.320;2022-08-30T13:58:07;98744.75;;;39.52;21.90
23446;BME280;11895;48.738;9.320;2022-08-30T14:00:36;98736.94;;;39.38;22.39
23446;BME280;11895;48.738;9.320;2022-08-30T14:06:48;98740.25;;;39.95;21.57
23446;BME280;11895;48.738;9.320;2022-08-30T14:17:10;98728.59;;;39.09;22.71
23446;BME280;11895;48.738;9.320;2022-08-30T14:19:38;98726.69;;;39.15;22.49
23446;BME280;11895;48.738;9.320;2022-08-30T14:22:06;98718.69;;;39.06;22.30
23446;BME280;11895;48.738;9.320;2022-08-30T14:24:34;98726.75;;;38.81;23.06
23446;BME280;11895;48.738;9.320;2022-08-30T14:27:01;98727.88;;;39.36;23.10
23446;BME280;11895;48.738;9.320;2022-08-30T14:29:28;98723.34;;;39.35;22.38
23446;BME280;11895;48.738;9.320;2022-08-30T14:31:57;98720.06;;;38.87;23.17
23446;BME280;11895;48.738;9.320;2022-08-30T14:34:26;98720.22;;;38.47;23.71
23446;BME280;11895;48.738;9.320;2022-08-30T14:36:54;98716.00;;;37.87;24.18
23446;BME280;11895;48.738;9.320;2022-08-30T14:39:22;98714.25;;;38.15;24.00
23446;BME280;11895;48.738;9.320;2022-08-30T14:41:53;98717.69;;;37.48;24.16
23446;BME280;11895;48.738;9.320;2022-08-30T14:44:23;98712.44;;;37.80;24.43
23446;BME280;11895;48.738;9.320;2022-08-30T14:46:52;98704.03;;;38.09;24.08
23446;BME280;11895;48.738;9.320;2022-08-30T14:49:20;98716.19;;;39.88;22.32
23446;BME280;11895;48.738;9.320;2022-08-30T14:51:49;98717.25;;;40.57;22.14
23446;BME280;11895;48.738;9.320;2022-08-30T14:54:21;98706.38;;;41.14;20.87
23446;BME280;11895;48.738;9.320;2022-08-30T14:56:52;98698.81;;;40.82;21.33
23446;BME280;11895;48.738;9.320;2022-08-30T14:59:21;98705.13;;;41.99;20.21
23446;BME280;11895;48.738;9.320;2022-08-30T15:01:48;98703.47;;;41.41;20.98
23446;BME280;11895;48.738;9.320;2022-08-30T15:04:16;98702.88;;;40.37;21.45
23446;BME280;11895;48.738;9.320;2022-08-30T15:06:48;98703.03;;;39.71;21.96
23446;BME280;11895;48.738;9.320;2022-08-30T15:09:21;98707.94;;;40.94;21.10
23446;BME280;11895;48.738;9.320;2022-08-30T15:11:56;98700.41;;;42.30;19.70
23446;BME280;11895;48.738;9.320;2022-08-30T15:14:27;98713.31;;;44.29;17.94
23446;BME280;11895;48.738;9.320;2022-08-30T15:16:58;98702.38;;;43.27;19.08
23446;BME280;11895;48.738;9.320;2022-08-30T15:19:30;98703.78;;;44.09;17.55
23446;BME280;11895;48.738;9.320;2022-08-30T15:22:02;98698.81;;;43.76;18.17
23446;BME280;11895;48.738;9.320;2022-08-30T15:24:32;98688.13;;;41.89;19.69
23446;BME280;11895;48.738;9.320;2022-08-30T15:26:59;98685.56;;;41.30;20.66
23446;BME280;11895;48.738;9.320;2022-08-30T15:29:29;98683.94;;;40.05;21.80
23446;BME280;11895;48.738;9.320;2022-08-30T15:31:59;98686.50;;;39.80;22.26
23446;BME280;11895;48.738;9.320;2022-08-30T15:34:29;98679.66;;;38.60;22.95
23446;BME280;11895;48.738;9.320;2022-08-30T15:36:57;98684.53;;;39.80;21.89
23446;BME280;11895;48.738;9.320;2022-08-30T15:39:25;98696.91;;;39.19;22.44
23446;BME280;11895;48.738;9.320;2022-08-30T15:41:52;98688.16;;;38.65;23.07
23446;BME280;11895;48.738;9.320;2022-08-30T15:44:24;98685.56;;;38.29;23.66
23446;BME280;11895;48.738;9.320;2022-08-30T15:46:52;98680.56;;;38.03;23.79
23446;BME280;11895;48.738;9.320;2022-08-30T15:49:22;98683.50;;;37.39;24.50
23446;BME280;11895;48.738;9.320;2022-08-30T15:51:51;98676.59;;;38.16;24.05
23446;BME280;11895;48.738;9.320;2022-08-30T15:54:22;98668.03;;;39.94;22.29
23446;BME280;11895;48.738;9.320;2022-08-30T15:56:50;98676.06;;;40.99;21.56
23446;BME280;11895;48.738;9.320;2022-08-30T15:59:27;98675.00;;;41.68;20.74
23446;BME280;11895;48.738;9.320;2022-08-30T16:01:56;98676.13;;;39.03;22.54
23446;BME280;11895;48.738;9.320;2022-08-30T16:04:24;98668.84;;;39.24;22.77
23446;BME280;11895;48.738;9.320;2022-08-30T16:06:52;98671.78;;;38.62;24.32
23446;BME280;11895;48.738;9.320;2022-08-30T16:09:20;98665.31;;;38.44;24.64